createdAt,value
2023-05-05T00:01:47.047Z,101548.91
2023-05-05T00:06:49.621Z,101540.88
2023-05-05T00:11:52.244Z,101534.72
2023-05-05T00:16:54.917Z,101535.63
2023-05-05T00:21:57.459Z,101537.78
2023-05-05T00:26:59.892Z,101541.97
2023-05-05T00:32:02.360Z,101524.88
2023-05-05T00:37:04.876Z,101527.38
2023-05-05T00:42:07.578Z,101522.13
2023-05-05T00:47:10.247Z,101510.41
2023-05-05T00:52:12.731Z,101525.06
2023-05-05T00:57:15.285Z,101535.41
2023-05-05T01:02:17.809Z,101538.41
2023-05-05T01:07:26.118Z,101521.22
2023-05-05T01:12:34.742Z,101529.66
2023-05-05T01:17:43.009Z,101537.13
2023-05-05T01:22:59.839Z,101548.66
2023-05-05T01:28:27.300Z,101552.81
2023-05-05T01:33:37.262Z,101550.97
2023-05-05T01:38:44.455Z,101550.97
2023-05-05T01:43:50.519Z,101554.09
2023-05-05T01:48:56.392Z,101545.53
2023-05-05T01:54:03.023Z,101565.63
2023-05-05T01:59:07.320Z,101575.31
2023-05-05T02:04:11.270Z,101584.44
2023-05-05T02:09:15.543Z,101588.88
2023-05-05T02:14:20.807Z,101576.69
2023-05-05T02:19:28.940Z,101581.50
2023-05-05T02:24:31.400Z,101582.81
2023-05-05T02:29:45.362Z,101593.63
2023-05-05T02:34:51.069Z,101597.41
2023-05-05T02:40:09.311Z,101594.03
2023-05-05T02:45:16.136Z,101589.44
2023-05-05T02:50:22.117Z,101582.94
2023-05-05T02:55:55.152Z,101579.88
2023-05-05T03:01:11.163Z,101582.69
2023-05-05T03:06:27.603Z,101582.44
2023-05-05T03:11:45.346Z,101582.31
2023-05-05T03:16:49.746Z,101587.88
2023-05-05T03:21:53.289Z,101593.19
2023-05-05T03:26:55.996Z,101605.06
2023-05-05T03:32:01.780Z,101595.63
2023-05-05T03:37:05.549Z,101588.31
2023-05-05T03:42:08.509Z,101578.00
2023-05-05T03:47:11.878Z,101580.72
2023-05-05T03:52:15.438Z,101581.38
2023-05-05T03:57:19.671Z,101608.78
2023-05-05T04:02:22.311Z,101611.66
2023-05-05T04:07:25.291Z,101608.03
2023-05-05T04:12:28.654Z,101609.19
2023-05-05T04:17:32.316Z,101613.06
2023-05-05T04:22:34.989Z,101604.00
2023-05-05T04:27:38.204Z,101607.09
2023-05-05T04:32:41.189Z,101609.78
2023-05-05T04:37:45.231Z,101599.03
2023-05-05T04:42:48.543Z,101602.28
2023-05-05T04:47:51.223Z,101608.06
2023-05-05T04:52:53.860Z,101608.31
2023-05-05T04:57:56.479Z,101626.97
2023-05-05T05:02:59.555Z,101613.59
2023-05-05T05:08:02.100Z,101616.63
2023-05-05T05:13:04.616Z,101616.72
2023-05-05T05:18:07.398Z,101617.78
2023-05-05T05:23:10.102Z,101618.09
2023-05-05T05:28:17.430Z,101614.69
2023-05-05T05:33:27.881Z,101617.94
2023-05-05T05:38:32.387Z,101596.63
2023-05-05T05:43:37.766Z,101605.78
2023-05-05T05:48:41.132Z,101591.53
2023-05-05T05:53:44.133Z,101593.75
2023-05-05T05:58:48.817Z,101605.31
2023-05-05T06:03:53.021Z,101616.94
2023-05-05T06:08:56.470Z,101618.03
2023-05-05T06:13:59.999Z,101608.16
2023-05-05T06:19:02.710Z,101612.34
2023-05-05T06:24:05.876Z,101604.22
2023-05-05T06:29:12.202Z,101610.38
2023-05-05T06:34:27.092Z,101603.31
2023-05-05T06:39:29.642Z,101602.13
2023-05-05T06:44:32.132Z,101596.13
2023-05-05T06:49:34.530Z,101600.88
2023-05-05T06:54:37.056Z,101600.09
2023-05-05T06:59:39.446Z,101600.56
2023-05-05T07:04:41.923Z,101583.91
2023-05-05T07:09:45.321Z,101588.84
2023-05-05T07:14:47.717Z,101584.19
2023-05-05T07:19:51.601Z,101578.25
2023-05-05T07:24:54.228Z,101590.47
2023-05-05T07:29:56.939Z,101585.00
2023-05-05T07:34:59.369Z,101583.41
2023-05-05T07:40:01.862Z,101582.94
2023-05-05T07:45:06.730Z,101592.88
2023-05-05T07:50:11.252Z,101581.53
2023-05-05T07:55:14.046Z,101580.34
2023-05-05T08:00:19.694Z,101591.28
2023-05-05T08:05:22.165Z,101580.06
2023-05-05T08:10:24.659Z,101582.56
2023-05-05T08:15:27.172Z,101585.44
2023-05-05T08:20:30.039Z,101578.78
2023-05-05T08:25:32.655Z,101583.91
2023-05-05T08:30:36.468Z,101576.91
2023-05-05T08:35:39.089Z,101578.28
2023-05-05T08:40:41.923Z,101567.78
2023-05-05T08:45:45.116Z,101565.25
2023-05-05T08:50:59.794Z,101557.72
2023-05-05T08:56:05.178Z,101547.47
2023-05-05T09:01:08.187Z,101543.91
2023-05-05T09:06:11.621Z,101556.56
2023-05-05T09:11:14.302Z,101557.59
2023-05-05T09:16:17.027Z,101550.97
2023-05-05T09:21:25.100Z,101548.41
2023-05-05T09:26:31.139Z,101539.78
2023-05-05T09:31:35.851Z,101536.16
2023-05-05T09:36:43.579Z,101521.88
2023-05-05T09:41:47.140Z,101517.00
2023-05-05T09:46:52.246Z,101505.16
2023-05-05T09:51:55.478Z,101516.31
2023-05-05T09:56:58.119Z,101508.81
2023-05-05T10:02:13.039Z,101494.47
2023-05-05T10:07:25.243Z,101486.09
2023-05-05T10:12:30.383Z,101475.91
2023-05-05T10:17:37.421Z,101473.25
2023-05-05T10:22:51.933Z,101485.00
2023-05-05T10:27:56.318Z,101464.69
2023-05-05T10:33:30.015Z,101466.34
2023-05-05T10:38:33.506Z,101467.66
2023-05-05T10:43:36.973Z,101463.78
2023-05-05T10:48:46.408Z,101468.25
2023-05-05T10:54:02.408Z,101462.06
2023-05-05T10:59:39.906Z,101456.75
2023-05-05T11:04:42.526Z,101441.97
2023-05-05T11:09:56.053Z,101437.78
2023-05-05T11:15:26.904Z,101420.59
2023-05-05T11:20:35.656Z,101413.28
2023-05-05T11:25:41.275Z,101407.59
2023-05-05T11:30:59.716Z,101409.22
2023-05-05T11:36:14.674Z,101412.88
2023-05-05T11:41:50.543Z,101401.44
2023-05-05T11:46:52.915Z,101394.91
2023-05-05T11:52:09.514Z,101384.94
2023-05-05T11:57:12.038Z,101376.25
2023-05-05T12:02:17.641Z,101357.56
2023-05-05T12:07:22.483Z,101368.94
2023-05-05T12:12:36.072Z,101345.75
2023-05-05T12:17:46.189Z,101355.97
2023-05-05T12:22:49.073Z,101340.88
2023-05-05T12:27:54.367Z,101345.69
2023-05-05T12:33:05.561Z,101346.53
2023-05-05T12:38:08.187Z,101339.59
2023-05-05T12:43:33.041Z,101335.84
2023-05-05T12:48:40.590Z,101328.44
2023-05-05T12:53:43.824Z,101334.06
2023-05-05T12:58:49.206Z,101326.63
2023-05-05T13:04:12.480Z,101300.94
2023-05-05T13:09:34.157Z,101319.88
2023-05-05T13:14:36.924Z,101309.22
2023-05-05T13:19:46.522Z,101312.00
2023-05-05T13:24:52.390Z,101305.91
2023-05-05T13:30:10.060Z,101302.59
2023-05-05T13:35:14.021Z,101301.78
2023-05-05T13:40:18.738Z,101302.44
2023-05-05T13:45:21.582Z,101305.28
2023-05-05T13:50:24.288Z,101305.72
2023-05-05T13:55:28.732Z,101311.78
2023-05-05T14:00:31.945Z,101313.78
2023-05-05T14:05:35.020Z,101308.34
2023-05-05T14:10:37.544Z,101309.91
2023-05-05T14:15:40.058Z,101314.34
2023-05-05T14:20:43.008Z,101297.75
2023-05-05T14:25:45.581Z,101302.34
2023-05-05T14:30:48.046Z,101311.81
2023-05-05T14:35:50.589Z,101299.63
2023-05-05T14:40:53.187Z,101293.81
2023-05-05T14:45:58.519Z,101299.72
2023-05-05T14:51:01.333Z,101293.56
2023-05-05T14:56:04.191Z,101298.88
2023-05-05T15:01:06.751Z,101296.28
2023-05-05T15:06:09.370Z,101295.34
2023-05-05T15:11:11.966Z,101301.38
2023-05-05T15:16:14.571Z,101295.16
2023-05-05T15:21:17.224Z,101296.72
2023-05-05T15:26:19.838Z,101290.56
2023-05-05T15:31:22.353Z,101298.19
2023-05-05T15:36:24.995Z,101296.09
2023-05-05T15:41:29.635Z,101300.88
2023-05-05T15:46:35.749Z,101307.38
2023-05-05T15:51:38.651Z,101306.91
2023-05-05T15:56:41.290Z,101311.84
2023-05-05T16:01:43.833Z,101308.34
2023-05-05T16:06:46.313Z,101287.44
2023-05-05T16:11:48.827Z,101300.13
2023-05-05T16:16:51.355Z,101301.63
2023-05-05T16:21:54.528Z,101294.63
2023-05-05T16:26:57.030Z,101293.63
2023-05-05T16:31:59.656Z,101293.56
2023-05-05T16:37:02.239Z,101293.56
2023-05-05T16:42:04.906Z,101302.56
2023-05-05T16:47:07.384Z,101297.53
2023-05-05T16:52:09.903Z,101296.38
2023-05-05T16:57:13.085Z,101294.41
2023-05-05T17:02:15.662Z,101290.78
2023-05-05T17:07:18.152Z,101283.84
2023-05-05T17:12:20.786Z,101276.81
2023-05-05T17:17:23.387Z,101268.75
2023-05-05T17:22:26.041Z,101265.19
2023-05-05T17:27:28.502Z,101268.19
2023-05-05T17:32:31.122Z,101269.88
2023-05-05T17:37:33.988Z,101264.22
2023-05-05T17:42:36.458Z,101266.25
2023-05-05T17:47:38.976Z,101273.19
2023-05-05T17:52:41.490Z,101261.75
2023-05-05T17:57:43.956Z,101275.34
2023-05-05T18:02:46.650Z,101258.13
2023-05-05T18:07:49.129Z,101262.59
2023-05-05T18:12:51.750Z,101266.16
2023-05-05T18:17:54.448Z,101260.59
2023-05-05T18:22:56.878Z,101260.41
2023-05-05T18:27:59.603Z,101246.34
2023-05-05T18:33:02.645Z,101239.84
2023-05-05T18:38:05.644Z,101243.44
2023-05-05T18:43:08.175Z,101244.16
2023-05-05T18:48:10.654Z,101232.09
2023-05-05T18:53:15.003Z,101240.78
2023-05-05T18:58:17.851Z,101240.78
2023-05-05T19:03:20.739Z,101232.66
2023-05-05T19:08:23.282Z,101231.72
2023-05-05T19:13:25.903Z,101228.47
2023-05-05T19:18:28.439Z,101209.69
2023-05-05T19:23:31.252Z,101200.47
2023-05-05T19:28:33.841Z,101196.47
2023-05-05T19:33:36.775Z,101205.47
2023-05-05T19:38:44.578Z,101193.41
2023-05-05T19:43:47.324Z,101188.41
2023-05-05T19:48:49.794Z,101186.94
2023-05-05T19:53:52.307Z,101182.63
2023-05-05T19:59:01.037Z,101184.75
2023-05-05T20:04:03.959Z,101178.81
2023-05-05T20:09:06.624Z,101179.50
2023-05-05T20:14:09.309Z,101177.31
2023-05-05T20:19:11.810Z,101176.34
2023-05-05T20:24:14.245Z,101174.63
2023-05-05T20:29:18.187Z,101171.34
2023-05-05T20:34:20.690Z,101166.78
2023-05-05T20:39:23.170Z,101171.97
2023-05-05T20:44:25.904Z,101164.66
2023-05-05T20:49:28.407Z,101165.19
2023-05-05T20:54:34.510Z,101165.69
2023-05-05T20:59:38.231Z,101153.97
2023-05-05T21:04:40.754Z,101145.03
2023-05-05T21:09:46.572Z,101147.13
2023-05-05T21:14:49.054Z,101153.53
2023-05-05T21:19:52.783Z,101153.28
2023-05-05T21:24:55.670Z,101152.19
2023-05-05T21:29:58.195Z,101152.03
2023-05-05T21:35:00.899Z,101140.91
2023-05-05T21:40:03.477Z,101136.91
2023-05-05T21:45:08.415Z,101139.28
2023-05-05T21:50:12.372Z,101131.03
2023-05-05T21:55:15.042Z,101124.94
2023-05-05T22:00:17.687Z,101124.59
2023-05-05T22:05:20.448Z,101123.63
2023-05-05T22:10:23.648Z,101115.09
2023-05-05T22:15:30.016Z,101114.63
2023-05-05T22:20:35.690Z,101114.84
2023-05-05T22:25:38.201Z,101112.03
2023-05-05T22:30:40.983Z,101115.31
2023-05-05T22:35:43.486Z,101115.19
2023-05-05T22:40:46.317Z,101107.00
2023-05-05T22:45:48.879Z,101099.75
2023-05-05T22:50:51.809Z,101107.09
2023-05-05T22:55:54.354Z,101104.94
2023-05-05T23:00:57.122Z,101108.81
2023-05-05T23:05:59.774Z,101103.25
2023-05-05T23:11:02.271Z,101109.06
2023-05-05T23:16:04.991Z,101116.13
2023-05-05T23:21:07.619Z,101101.19
2023-05-05T23:26:10.129Z,101107.22
2023-05-05T23:31:12.634Z,101105.53
2023-05-05T23:36:15.137Z,101114.56
2023-05-05T23:41:19.232Z,101101.06
2023-05-05T23:46:22.098Z,101098.31
2023-05-05T23:51:24.854Z,101097.69
2023-05-05T23:56:27.472Z,101092.06
